createdAt,value
2023-03-17T00:00:59.512Z,59.75
2023-03-17T00:03:30.490Z,60.07
2023-03-17T00:06:03.905Z,59.93
2023-03-17T00:08:35.556Z,59.99
2023-03-17T00:11:07.261Z,59.96
2023-03-17T00:13:38.680Z,60.00
2023-03-17T00:16:17.072Z,59.92
2023-03-17T00:18:47.407Z,59.96
2023-03-17T00:21:22.398Z,59.95
2023-03-17T00:23:53.527Z,60.02
2023-03-17T00:26:24.207Z,60.07
2023-03-17T00:28:54.944Z,60.28
2023-03-17T00:31:27.538Z,60.30
2023-03-17T00:33:58.896Z,60.26
2023-03-17T00:36:31.632Z,60.41
2023-03-17T00:39:02.213Z,60.26
2023-03-17T00:41:33.127Z,60.33
2023-03-17T00:44:03.349Z,60.29
2023-03-17T00:46:36.246Z,60.42
2023-03-17T00:49:15.469Z,60.57
2023-03-17T00:51:46.265Z,60.59
2023-03-17T00:54:16.678Z,60.64
2023-03-17T00:56:48.763Z,60.76
2023-03-17T00:59:26.762Z,60.63
2023-03-17T01:01:57.521Z,60.54
2023-03-17T01:04:28.665Z,60.64
2023-03-17T01:06:59.769Z,60.44
2023-03-17T01:09:30.863Z,60.32
2023-03-17T01:12:01.441Z,60.40
2023-03-17T01:14:32.264Z,60.19
2023-03-17T01:17:02.488Z,60.36
2023-03-17T01:19:32.666Z,60.22
2023-03-17T01:22:02.980Z,60.21
2023-03-17T01:24:33.426Z,60.23
2023-03-17T01:27:05.170Z,60.29
2023-03-17T01:29:35.827Z,60.43
2023-03-17T01:32:07.280Z,60.65
2023-03-17T01:34:37.928Z,60.63
2023-03-17T01:37:09.919Z,60.77
2023-03-17T01:39:40.558Z,60.91
2023-03-17T01:42:11.274Z,60.82
2023-03-17T01:44:59.257Z,60.98
2023-03-17T01:47:31.765Z,61.18
2023-03-17T01:50:07.198Z,61.31
2023-03-17T01:52:39.466Z,61.35
2023-03-17T01:55:13.193Z,61.29
2023-03-17T01:57:46.797Z,61.39
2023-03-17T02:00:20.752Z,61.29
2023-03-17T02:02:53.725Z,61.19
2023-03-17T02:05:26.893Z,61.19
2023-03-17T02:07:58.438Z,61.27
2023-03-17T02:10:30.197Z,61.41
2023-03-17T02:13:03.726Z,61.51
2023-03-17T02:15:41.765Z,61.85
2023-03-17T02:18:12.886Z,62.14
2023-03-17T02:21:20.338Z,62.15
2023-03-17T02:23:51.219Z,62.72
2023-03-17T02:26:22.993Z,63.04
2023-03-17T02:28:53.863Z,63.45
2023-03-17T02:31:25.956Z,63.82
2023-03-17T02:33:57.298Z,64.27
2023-03-17T02:36:27.666Z,64.74
2023-03-17T02:38:58.268Z,64.97
2023-03-17T02:41:29.070Z,65.07
2023-03-17T02:43:59.787Z,64.98
2023-03-17T02:46:30.957Z,65.32
2023-03-17T02:49:02.105Z,65.30
2023-03-17T02:51:33.097Z,65.46
2023-03-17T02:54:04.233Z,65.75
2023-03-17T02:56:34.643Z,65.85
2023-03-17T02:59:05.948Z,65.78
2023-03-17T03:01:38.591Z,66.23
2023-03-17T03:04:10.125Z,66.25
2023-03-17T03:06:42.306Z,66.15
2023-03-17T03:09:12.788Z,66.46
2023-03-17T03:11:42.963Z,66.44
2023-03-17T03:14:13.327Z,66.52
2023-03-17T03:16:44.126Z,66.61
2023-03-17T03:19:14.421Z,67.06
2023-03-17T03:21:44.484Z,67.04
2023-03-17T03:24:14.776Z,66.86
2023-03-17T03:26:44.948Z,66.94
2023-03-17T03:29:15.180Z,66.95
2023-03-17T03:31:47.820Z,66.77
2023-03-17T03:34:18.442Z,66.93
2023-03-17T03:36:48.620Z,66.73
2023-03-17T03:39:19.229Z,66.63
2023-03-17T03:41:49.347Z,66.64
2023-03-17T03:44:19.602Z,66.69
2023-03-17T03:46:49.760Z,66.59
2023-03-17T03:49:21.180Z,66.39
2023-03-17T03:51:52.246Z,66.04
2023-03-17T03:54:22.859Z,66.07
2023-03-17T03:56:53.718Z,65.89
2023-03-17T03:59:24.002Z,65.87
2023-03-17T04:01:54.210Z,65.38
2023-03-17T04:04:24.685Z,65.30
2023-03-17T04:06:55.073Z,64.82
2023-03-17T04:09:25.530Z,64.65
2023-03-17T04:11:56.027Z,64.52
2023-03-17T04:14:26.234Z,64.16
2023-03-17T04:16:56.662Z,64.08
2023-03-17T04:19:27.515Z,63.87
2023-03-17T04:21:58.266Z,63.58
2023-03-17T04:24:28.872Z,63.17
2023-03-17T04:26:59.549Z,62.82
2023-03-17T04:29:30.116Z,62.48
2023-03-17T04:32:00.393Z,62.59
2023-03-17T04:34:31.386Z,62.86
2023-03-17T04:37:02.288Z,62.73
2023-03-17T04:39:32.580Z,62.89
2023-03-17T04:42:03.069Z,63.06
2023-03-17T04:44:33.708Z,63.22
2023-03-17T04:47:04.950Z,62.97
2023-03-17T04:49:36.615Z,63.04
2023-03-17T04:52:08.062Z,63.08
2023-03-17T04:54:38.490Z,63.46
2023-03-17T04:57:09.659Z,63.44
2023-03-17T04:59:39.881Z,63.83
2023-03-17T05:02:10.455Z,64.31
2023-03-17T05:04:40.724Z,64.29
2023-03-17T05:07:11.125Z,64.61
2023-03-17T05:09:41.653Z,64.94
2023-03-17T05:12:14.300Z,64.87
2023-03-17T05:14:44.533Z,65.33
2023-03-17T05:17:15.266Z,65.54
2023-03-17T05:19:45.405Z,65.55
2023-03-17T05:22:15.610Z,65.77
2023-03-17T05:24:47.285Z,65.82
2023-03-17T05:27:19.023Z,65.89
2023-03-17T05:29:53.290Z,65.83
2023-03-17T05:32:23.884Z,65.91
2023-03-17T05:34:54.116Z,65.70
2023-03-17T05:37:25.330Z,65.76
2023-03-17T05:39:55.469Z,65.37
2023-03-17T05:42:26.033Z,65.33
2023-03-17T05:44:56.651Z,64.99
2023-03-17T05:47:27.591Z,64.93
2023-03-17T05:49:57.857Z,64.86
2023-03-17T05:52:28.464Z,64.86
2023-03-17T05:54:58.991Z,64.66
2023-03-17T05:57:29.429Z,64.67
2023-03-17T06:00:00.045Z,64.43
2023-03-17T06:02:30.823Z,64.23
2023-03-17T06:05:01.827Z,64.41
2023-03-17T06:07:41.130Z,64.40
2023-03-17T06:10:21.212Z,64.45
2023-03-17T06:12:52.032Z,64.25
2023-03-17T06:15:22.629Z,64.24
2023-03-17T06:17:53.231Z,64.00
2023-03-17T06:20:23.494Z,64.03
2023-03-17T06:23:03.870Z,64.11
2023-03-17T06:25:37.014Z,63.65
2023-03-17T06:28:07.756Z,63.44
2023-03-17T06:30:40.649Z,62.79
2023-03-17T06:33:11.667Z,62.12
2023-03-17T06:35:42.351Z,61.35
2023-03-17T06:38:13.850Z,60.71
2023-03-17T06:40:44.901Z,60.03
2023-03-17T06:43:15.093Z,59.89
2023-03-17T06:45:45.395Z,59.76
2023-03-17T06:48:15.629Z,59.38
2023-03-17T06:50:47.484Z,59.42
2023-03-17T06:53:17.771Z,59.40
2023-03-17T06:55:48.718Z,59.33
2023-03-17T06:58:20.679Z,59.46
2023-03-17T07:00:54.161Z,59.49
2023-03-17T07:03:25.337Z,59.25
2023-03-17T07:05:55.530Z,58.92
2023-03-17T07:08:25.772Z,58.79
2023-03-17T07:10:57.753Z,58.72
2023-03-17T07:13:28.067Z,58.97
2023-03-17T07:16:00.500Z,58.70
2023-03-17T07:18:31.844Z,58.29
2023-03-17T07:21:03.059Z,58.05
2023-03-17T07:23:33.367Z,58.28
2023-03-17T07:26:04.032Z,58.12
2023-03-17T07:28:34.509Z,58.20
2023-03-17T07:31:08.804Z,58.05
2023-03-17T07:33:39.326Z,57.91
2023-03-17T07:36:10.731Z,57.40
2023-03-17T07:38:41.433Z,57.44
2023-03-17T07:41:12.098Z,57.17
2023-03-17T07:43:42.247Z,56.91
2023-03-17T07:46:13.531Z,57.07
2023-03-17T07:48:44.292Z,56.78
2023-03-17T07:51:17.358Z,56.52
2023-03-17T07:53:50.045Z,56.59
2023-03-17T07:56:21.224Z,56.53
2023-03-17T07:58:51.609Z,56.40
2023-03-17T08:01:23.160Z,55.70
2023-03-17T08:03:53.468Z,54.67
2023-03-17T08:06:25.088Z,54.24
2023-03-17T08:08:56.452Z,54.10
2023-03-17T08:11:29.242Z,53.91
2023-03-17T08:14:01.235Z,53.99
2023-03-17T08:16:31.732Z,53.94
2023-03-17T08:19:04.089Z,53.70
2023-03-17T08:21:34.490Z,53.31
2023-03-17T08:24:05.921Z,53.00
2023-03-17T08:26:37.255Z,52.89
2023-03-17T08:29:07.858Z,52.50
2023-03-17T08:31:38.252Z,52.25
2023-03-17T08:34:08.980Z,51.94
2023-03-17T08:36:39.488Z,51.65
2023-03-17T08:39:10.463Z,51.20
2023-03-17T08:41:41.438Z,50.45
2023-03-17T08:44:12.706Z,50.19
2023-03-17T08:46:42.973Z,49.74
2023-03-17T08:49:13.303Z,49.37
2023-03-17T08:51:44.809Z,48.88
2023-03-17T08:54:15.542Z,48.76
2023-03-17T08:56:46.836Z,48.58
2023-03-17T08:59:17.105Z,48.44
2023-03-17T09:01:47.660Z,48.47
2023-03-17T09:04:18.365Z,48.66
2023-03-17T09:07:02.310Z,48.83
2023-03-17T09:09:35.105Z,48.84
2023-03-17T09:12:06.803Z,48.98
2023-03-17T09:14:43.367Z,49.02
2023-03-17T09:17:15.767Z,49.15
2023-03-17T09:19:46.113Z,49.36
2023-03-17T09:22:17.662Z,49.25
2023-03-17T09:24:47.873Z,49.64
2023-03-17T09:27:18.282Z,49.92
2023-03-17T09:29:48.721Z,50.02
2023-03-17T09:32:19.267Z,50.05
2023-03-17T09:34:51.606Z,50.14
2023-03-17T09:37:22.321Z,50.32
2023-03-17T09:39:52.760Z,49.97
2023-03-17T09:42:36.745Z,50.13
2023-03-17T09:45:15.454Z,50.01
2023-03-17T09:48:12.985Z,49.91
2023-03-17T09:50:47.891Z,49.78
2023-03-17T09:53:20.452Z,49.53
2023-03-17T09:55:55.523Z,49.33
2023-03-17T09:58:31.014Z,48.98
2023-03-17T10:01:02.782Z,48.81
2023-03-17T10:03:33.851Z,48.65
2023-03-17T10:06:22.509Z,48.11
2023-03-17T10:08:58.316Z,47.82
2023-03-17T10:11:38.957Z,47.67
2023-03-17T10:14:23.884Z,47.34
2023-03-17T10:16:57.004Z,47.04
2023-03-17T10:19:30.493Z,46.81
2023-03-17T10:22:03.907Z,46.33
2023-03-17T10:24:35.906Z,45.38
2023-03-17T10:27:07.752Z,44.73
2023-03-17T10:29:38.119Z,44.28
2023-03-17T10:32:12.367Z,43.67
2023-03-17T10:34:43.794Z,42.94
2023-03-17T10:37:17.380Z,42.49
2023-03-17T10:39:48.843Z,41.81
2023-03-17T10:42:24.295Z,41.41
2023-03-17T10:44:56.786Z,41.06
2023-03-17T10:47:38.716Z,40.52
2023-03-17T10:50:21.275Z,40.32
2023-03-17T10:52:54.590Z,40.04
2023-03-17T10:55:29.242Z,39.74
2023-03-17T10:58:04.033Z,38.92
2023-03-17T11:00:36.409Z,38.77
2023-03-17T11:03:15.873Z,38.49
2023-03-17T11:05:57.632Z,38.19
2023-03-17T11:08:33.053Z,38.35
2023-03-17T11:11:07.432Z,38.32
2023-03-17T11:13:38.231Z,38.14
2023-03-17T11:16:21.816Z,38.12
2023-03-17T11:18:54.967Z,37.85
2023-03-17T11:21:28.055Z,38.06
2023-03-17T11:24:01.973Z,37.84
2023-03-17T11:26:53.233Z,37.90
2023-03-17T11:29:39.938Z,37.80
2023-03-17T11:32:26.164Z,37.25
2023-03-17T11:35:11.144Z,37.66
2023-03-17T11:37:53.745Z,37.53
2023-03-17T11:40:33.193Z,37.24
2023-03-17T11:43:17.010Z,37.34
2023-03-17T11:45:48.880Z,37.45
2023-03-17T11:48:34.696Z,37.67
2023-03-17T11:51:09.692Z,37.65
2023-03-17T11:53:50.922Z,37.60
2023-03-17T11:56:24.050Z,37.54
2023-03-17T11:58:58.822Z,37.50
2023-03-17T12:01:33.560Z,37.57
2023-03-17T12:04:12.171Z,37.53
2023-03-17T12:06:45.719Z,37.56
2023-03-17T12:09:25.558Z,37.50
2023-03-17T12:11:57.526Z,37.44
2023-03-17T12:14:30.546Z,37.58
2023-03-17T12:17:06.782Z,37.38
2023-03-17T12:19:42.144Z,37.49
2023-03-17T12:22:19.781Z,37.85
2023-03-17T12:24:54.584Z,37.79
2023-03-17T12:27:27.973Z,37.48
2023-03-17T12:30:01.915Z,37.83
2023-03-17T12:32:39.084Z,37.99
2023-03-17T12:35:26.749Z,38.07
2023-03-17T12:37:59.174Z,38.41
2023-03-17T12:40:35.277Z,38.61
2023-03-17T12:43:23.786Z,38.93
2023-03-17T12:46:15.711Z,39.11
2023-03-17T12:49:01.054Z,39.27
2023-03-17T12:51:46.491Z,39.23
2023-03-17T12:54:21.886Z,39.33
2023-03-17T12:56:52.032Z,39.29
2023-03-17T12:59:24.857Z,39.50
2023-03-17T13:01:59.409Z,39.55
2023-03-17T13:04:32.830Z,39.58
2023-03-17T13:07:09.609Z,39.77
2023-03-17T13:09:47.144Z,40.05
2023-03-17T13:12:48.913Z,40.12
2023-03-17T13:15:30.848Z,40.24
2023-03-17T13:18:50.219Z,40.56
2023-03-17T13:21:24.683Z,40.83
2023-03-17T13:24:01.104Z,41.02
2023-03-17T13:26:56.956Z,41.26
2023-03-17T13:29:47.730Z,41.55
2023-03-17T13:32:52.719Z,41.94
2023-03-17T13:35:27.887Z,42.28
2023-03-17T13:38:21.626Z,42.46
2023-03-17T13:41:01.119Z,42.69
2023-03-17T13:44:01.158Z,42.75
2023-03-17T13:46:40.047Z,43.02
2023-03-17T13:49:22.140Z,43.10
2023-03-17T13:52:00.179Z,43.30
2023-03-17T13:54:36.710Z,43.46
2023-03-17T13:57:28.246Z,43.79
2023-03-17T14:00:02.497Z,44.09
2023-03-17T14:02:34.882Z,44.36
2023-03-17T14:05:07.453Z,44.50
2023-03-17T14:07:45.374Z,44.80
2023-03-17T14:10:19.501Z,44.95
2023-03-17T14:12:53.043Z,45.10
2023-03-17T14:15:28.106Z,45.20
2023-03-17T14:18:01.261Z,45.32
2023-03-17T14:20:31.897Z,45.66
2023-03-17T14:23:03.940Z,45.80
2023-03-17T14:25:36.343Z,46.00
2023-03-17T14:28:11.205Z,46.23
2023-03-17T14:30:41.605Z,46.37
2023-03-17T14:33:20.622Z,46.55
2023-03-17T14:35:52.623Z,46.95
2023-03-17T14:38:25.572Z,47.08
2023-03-17T14:41:04.081Z,47.41
2023-03-17T14:43:35.232Z,47.53
2023-03-17T14:46:07.321Z,47.74
2023-03-17T14:48:38.966Z,47.69
2023-03-17T14:51:13.039Z,48.18
2023-03-17T14:53:46.182Z,48.61
2023-03-17T14:56:16.581Z,48.76
2023-03-17T14:58:48.216Z,48.87
2023-03-17T15:01:20.665Z,49.11
2023-03-17T15:03:58.334Z,49.25
2023-03-17T15:06:30.488Z,49.38
2023-03-17T15:09:03.692Z,49.56
2023-03-17T15:11:41.037Z,49.52
2023-03-17T15:14:20.646Z,49.80
2023-03-17T15:16:53.246Z,50.07
2023-03-17T15:19:27.682Z,50.28
2023-03-17T15:22:00.076Z,50.51
2023-03-17T15:24:41.004Z,50.67
2023-03-17T15:27:16.989Z,50.74
2023-03-17T15:29:48.029Z,50.95
2023-03-17T15:32:19.994Z,51.01
2023-03-17T15:34:51.234Z,50.95
2023-03-17T15:37:22.605Z,51.15
2023-03-17T15:39:53.407Z,51.37
2023-03-17T15:42:25.162Z,51.21
2023-03-17T15:44:56.021Z,51.31
2023-03-17T15:47:28.629Z,51.31
2023-03-17T15:50:01.714Z,51.46
2023-03-17T15:52:32.075Z,51.52
2023-03-17T15:55:02.816Z,51.65
2023-03-17T15:57:33.984Z,51.82
2023-03-17T16:00:05.005Z,51.86
2023-03-17T16:02:37.051Z,52.08
2023-03-17T16:05:17.149Z,52.19
2023-03-17T16:07:47.819Z,52.36
2023-03-17T16:10:20.431Z,52.42
2023-03-17T16:12:51.088Z,52.56
2023-03-17T16:15:24.062Z,52.78
2023-03-17T16:17:56.259Z,52.79
2023-03-17T16:20:37.595Z,53.07
2023-03-17T16:23:13.600Z,53.01
2023-03-17T16:25:44.471Z,53.12
2023-03-17T16:28:18.715Z,53.03
2023-03-17T16:30:50.018Z,53.18
2023-03-17T16:33:22.252Z,53.11
2023-03-17T16:35:54.227Z,53.55
2023-03-17T16:38:26.078Z,53.80
2023-03-17T16:40:59.270Z,54.11
2023-03-17T16:43:31.288Z,54.20
2023-03-17T16:46:03.366Z,54.49
2023-03-17T16:48:33.967Z,54.41
2023-03-17T16:51:05.727Z,54.56
2023-03-17T16:53:36.445Z,55.08
2023-03-17T16:56:14.328Z,55.35
2023-03-17T16:58:45.172Z,55.61
2023-03-17T17:01:17.575Z,55.66
2023-03-17T17:03:47.871Z,55.46
2023-03-17T17:06:19.340Z,55.39
2023-03-17T17:08:51.186Z,55.74
2023-03-17T17:11:22.303Z,55.85
2023-03-17T17:13:52.637Z,55.94
2023-03-17T17:16:26.315Z,55.72
2023-03-17T17:18:57.087Z,55.75
2023-03-17T17:21:28.295Z,55.71
2023-03-17T17:23:59.016Z,55.92
2023-03-17T17:26:30.024Z,56.11
2023-03-17T17:29:00.376Z,56.13
2023-03-17T17:31:30.700Z,56.18
2023-03-17T17:34:01.141Z,56.09
2023-03-17T17:36:31.631Z,56.29
2023-03-17T17:39:01.976Z,56.29
2023-03-17T17:41:34.085Z,56.43
2023-03-17T17:44:05.586Z,56.82
2023-03-17T17:46:37.298Z,57.01
2023-03-17T17:49:08.150Z,56.83
2023-03-17T17:51:38.468Z,57.20
2023-03-17T17:54:08.918Z,57.52
2023-03-17T17:56:40.227Z,57.57
2023-03-17T17:59:11.925Z,57.50
2023-03-17T18:01:42.331Z,57.52
2023-03-17T18:04:13.222Z,57.63
2023-03-17T18:06:43.540Z,57.85
2023-03-17T18:09:14.588Z,57.80
2023-03-17T18:11:44.878Z,58.11
2023-03-17T18:14:15.270Z,58.16
2023-03-17T18:16:45.890Z,58.38
2023-03-17T18:19:16.690Z,58.60
2023-03-17T18:21:47.266Z,58.72
2023-03-17T18:24:17.562Z,58.84
2023-03-17T18:26:47.781Z,58.80
2023-03-17T18:29:18.452Z,59.08
2023-03-17T18:31:50.470Z,59.22
2023-03-17T18:34:23.638Z,59.15
2023-03-17T18:36:55.418Z,59.01
2023-03-17T18:39:26.105Z,58.87
2023-03-17T18:41:56.550Z,58.96
2023-03-17T18:44:26.838Z,58.82
2023-03-17T18:46:57.262Z,58.73
2023-03-17T18:49:28.005Z,58.85
2023-03-17T18:51:59.280Z,58.73
2023-03-17T18:54:31.487Z,58.72
2023-03-17T18:57:01.870Z,58.83
2023-03-17T18:59:32.120Z,59.10
2023-03-17T19:02:03.502Z,59.05
2023-03-17T19:04:33.969Z,59.23
2023-03-17T19:07:04.462Z,59.22
2023-03-17T19:09:35.150Z,59.19
2023-03-17T19:12:07.292Z,59.10
2023-03-17T19:14:38.342Z,59.37
2023-03-17T19:17:09.104Z,59.22
2023-03-17T19:19:41.072Z,59.28
2023-03-17T19:22:11.907Z,59.06
2023-03-17T19:24:42.125Z,59.20
2023-03-17T19:27:12.234Z,59.26
2023-03-17T19:29:43.130Z,59.18
2023-03-17T19:32:13.692Z,59.14
2023-03-17T19:34:44.031Z,59.24
2023-03-17T19:37:14.270Z,59.00
2023-03-17T19:39:44.943Z,58.91
2023-03-17T19:42:15.895Z,58.65
2023-03-17T19:44:46.026Z,58.77
2023-03-17T19:47:16.456Z,58.52
2023-03-17T19:49:47.044Z,58.35
2023-03-17T19:52:17.274Z,58.35
2023-03-17T19:54:48.576Z,58.25
2023-03-17T19:57:20.473Z,58.14
2023-03-17T19:59:51.828Z,58.18
2023-03-17T20:02:22.519Z,58.07
2023-03-17T20:04:53.426Z,57.96
2023-03-17T20:07:23.842Z,58.17
2023-03-17T20:09:54.704Z,57.84
2023-03-17T20:12:25.389Z,58.13
2023-03-17T20:14:55.768Z,58.00
2023-03-17T20:17:26.332Z,57.96
2023-03-17T20:20:14.830Z,58.09
2023-03-17T20:22:46.472Z,58.12
2023-03-17T20:25:16.913Z,58.17
2023-03-17T20:27:47.105Z,58.32
2023-03-17T20:30:17.820Z,58.25
2023-03-17T20:32:50.577Z,58.25
2023-03-17T20:35:20.810Z,58.46
2023-03-17T20:37:52.769Z,58.55
2023-03-17T20:40:23.515Z,58.66
2023-03-17T20:42:53.728Z,58.67
2023-03-17T20:45:24.174Z,58.78
2023-03-17T20:47:55.800Z,58.79
2023-03-17T20:50:26.099Z,59.05
2023-03-17T20:52:56.516Z,59.10
2023-03-17T20:55:27.535Z,59.21
2023-03-17T20:58:01.661Z,59.28
2023-03-17T21:00:32.799Z,59.20
2023-03-17T21:03:03.841Z,59.33
2023-03-17T21:05:35.384Z,59.27
2023-03-17T21:08:06.699Z,59.36
2023-03-17T21:10:37.112Z,59.30
2023-03-17T21:13:07.792Z,59.43
2023-03-17T21:15:38.152Z,59.42
2023-03-17T21:18:08.477Z,59.54
2023-03-17T21:20:38.802Z,59.54
2023-03-17T21:23:09.407Z,59.80
2023-03-17T21:25:39.788Z,59.75
2023-03-17T21:28:10.920Z,59.83
2023-03-17T21:30:44.328Z,60.09
2023-03-17T21:33:15.167Z,60.24
2023-03-17T21:35:45.433Z,60.25
2023-03-17T21:38:15.862Z,60.37
2023-03-17T21:40:45.999Z,60.59
2023-03-17T21:43:16.712Z,60.79
2023-03-17T21:45:47.517Z,60.95
2023-03-17T21:48:17.950Z,61.03
2023-03-17T21:50:49.870Z,61.17
2023-03-17T21:53:20.536Z,61.29
2023-03-17T21:55:50.783Z,61.46
2023-03-17T21:58:21.913Z,61.73
2023-03-17T22:00:53.099Z,62.00
2023-03-17T22:03:23.236Z,62.40
2023-03-17T22:05:54.609Z,62.51
2023-03-17T22:08:25.680Z,62.89
2023-03-17T22:10:56.610Z,63.01
2023-03-17T22:13:27.393Z,63.42
2023-03-17T22:16:01.270Z,63.44
2023-03-17T22:18:32.545Z,63.77
2023-03-17T22:21:03.364Z,63.86
2023-03-17T22:23:39.289Z,63.98
2023-03-17T22:26:10.258Z,64.13
2023-03-17T22:28:41.290Z,64.33
2023-03-17T22:31:16.357Z,64.34
2023-03-17T22:33:46.563Z,64.60
2023-03-17T22:36:17.641Z,64.69
2023-03-17T22:38:48.061Z,64.81
2023-03-17T22:41:20.423Z,65.11
2023-03-17T22:43:50.697Z,65.27
2023-03-17T22:46:21.098Z,65.36
2023-03-17T22:48:51.506Z,65.44
2023-03-17T22:51:25.016Z,65.62
2023-03-17T22:53:55.831Z,65.63
2023-03-17T22:56:26.532Z,65.77
2023-03-17T22:58:57.155Z,65.74
2023-03-17T23:01:28.145Z,65.83
2023-03-17T23:03:58.410Z,65.74
2023-03-17T23:06:30.568Z,66.09
2023-03-17T23:09:00.770Z,66.19
2023-03-17T23:11:31.947Z,66.30
2023-03-17T23:14:02.761Z,66.50
2023-03-17T23:16:32.989Z,66.75
2023-03-17T23:19:03.211Z,66.64
2023-03-17T23:21:35.291Z,66.61
2023-03-17T23:24:07.346Z,66.71
2023-03-17T23:26:37.888Z,66.84
2023-03-17T23:29:09.632Z,66.86
2023-03-17T23:31:40.677Z,67.06
2023-03-17T23:34:11.760Z,66.98
2023-03-17T23:36:42.072Z,67.11
2023-03-17T23:39:12.219Z,67.29
2023-03-17T23:41:42.463Z,67.21
2023-03-17T23:44:14.196Z,67.49
2023-03-17T23:46:44.802Z,67.20
2023-03-17T23:49:15.397Z,67.36
2023-03-17T23:51:45.879Z,67.40
2023-03-17T23:54:16.552Z,67.65
2023-03-17T23:56:46.679Z,67.80
2023-03-17T23:59:16.840Z,67.91
